ADDS METAR Data INFO
IDs: Format: Raw Decoded Include TAF

Data at: 0924 UTC 17 Oct 2017

KMBL 170856Z AUTO 09003KT 10SM CLR 07/05 A3006 RMK AO2 SLP204 T00670050 58018
KMBL 170756Z AUTO 10003KT 10SM CLR 06/04 A3008 RMK AO2 SLP213 T00610044
KMBL 170656Z AUTO 09004KT 10SM CLR 03/03 A3011 RMK AO2 SLP219 T00330028
KMBL 170556Z AUTO 10004KT 10SM CLR 03/03 A3011 RMK AO2 SLP220 T00330028 10078 20028 56009
KMBL 170456Z AUTO 09004KT 10SM CLR 04/03 A3012 RMK AO2 SLP222 T00440033 401280033
KMBL 170356Z AUTO 00000KT 10SM CLR 06/04 A3013 RMK AO2 SLP225 T00610039
KMBL 170256Z AUTO 07003KT 10SM CLR 06/04 A3014 RMK AO2 SLP230 T00610039 56009
KMBL 170156Z AUTO 00000KT 10SM CLR 06/04 A3015 RMK AO2 SLP231 T00560039
KMBL 170056Z AUTO 00000KT 10SM CLR 08/04 A3016 RMK AO2 SLP236 T00780039
KMBL 162356Z AUTO 00000KT 10SM CLR 07/05 A3017 RMK AO2 SLP237 6//// T00720050 10128 20067 58009
KMBL 162256Z AUTO 16003KT 10SM CLR 11/04 A3018 RMK AO2 SLP244 T01060039 PNO $
KMBL 162156Z AUTO 21006KT 10SM CLR 12/03 A3019 RMK AO2 SLP245 T01220033 PNO $
KMBL 162056Z AUTO 23009KT 10SM CLR 13/03 A3019 RMK AO2 SLP247 6//// T01280033 58012 PNO $
KMBL 161956Z AUTO 24007KT 10SM CLR 13/04 A3021 RMK AO2 SLP255 T01280039 PNO $
KMBL 161856Z AUTO 24007G16KT 10SM CLR 12/03 A3022 RMK AO2 SLP255 T01220033 PNO $
KMBL 161756Z AUTO 23014G17KT 10SM SCT035 12/04 A3023 RMK AO2 SLP259 6//// T01220039 10128 20050 58009 PNO $
KMBL 161656Z AUTO 25006KT 10SM FEW055 12/05 A3025 RMK AO2 SLP269 T01220050 PNO $
KMBL 161556Z AUTO 19008KT 10SM CLR 11/06 A3025 RMK AO2 SLP266 T01110061 PNO $
KMBL 161456Z AUTO 14003KT 10SM OVC070 09/07 A3026 RMK AO2 RAE00 SLP269 6//// T00890067 51004 PNO $
KMBL 161356Z AUTO 00000KT 10SM -RA FEW043 BKN065 OVC080 06/04 A3026 RMK AO2 RAB22 SLP271 T00610044 PNO $
KMBL 161256Z AUTO 13003KT 10SM BKN080 06/05 A3025 RMK AO2 SLP268 T00560050 PNO $
KMBL 161156Z AUTO 00000KT 10SM BKN090 05/04 A3024 RMK AO2 SLP266 6//// 7//// T00500044 10061 20050 51010 PNO $
KMBL 161056Z AUTO 00000KT 10SM SCT032 BKN075 OVC090 05/04 A3024 RMK AO2 RAE32 SLP264 T00500044 PNO $
KMBL 160956Z AUTO 00000KT 10SM -RA BKN034 OVC055 06/04 A3023 RMK AO2 RAB02 SLP259 T00560044 PNO $
KMBL 160825Z AUTO 00000KT 10SM FEW026 SCT031 OVC044 05/04 A3021 RMK AO2 RAE25 PNO $
KMBL 160756Z AUTO 16004KT 9SM RA OVC028 06/04 A3022 RMK AO2 SLP256 T00560044 PNO $
KMBL 160751Z AUTO 18006KT 10SM RA OVC028 06/04 A3022 RMK AO2 PNO $
KMBL 160656Z AUTO 14003KT 10SM -RA FEW025 BKN035 OVC065 06/04 A3020 RMK AO2 SLP250 T00560044 PNO $
KMBL 160556Z AUTO 00000KT 9SM RA OVC033 06/05 A3020 RMK AO2 SLP252 6//// T00560050 10106 20056 53014 PNO $
KMBL 160456Z AUTO 00000KT 7SM -RA BKN033 OVC046 06/05 A3019 RMK AO2 SLP247 T00610050 401940061 PNO $
KMBL 160356Z AUTO 17003KT 10SM -RA SCT040 OVC050 07/04 A3017 RMK AO2 RAB42 SLP241 T00670044 PNO $
KMBL 160256Z AUTO 20003KT 10SM SCT039 OVC047 07/06 A3016 RMK AO2 RAB14E48 SLP239 6//// T00720061 51019 PNO $
KMBL 160156Z AUTO 00000KT 10SM BKN038 OVC049 08/07 A3014 RMK AO2 RAE00B22E45 SLP232 T00780067 PNO $
KMBL 160056Z AUTO 05003KT 10SM -RA OVC034 08/07 A3013 RMK AO2 RAB05 SLP226 T00780067 PNO $
KMBL 152356Z AUTO 35010G15KT 10SM SCT037 OVC047 11/04 A3011 RMK AO2 RAB02E13 SLP217 6//// T01060039 10117 20094 51032 PNO $
KMBL 152256Z AUTO 33008KT 10SM SCT037 BKN045 OVC060 11/04 A3008 RMK AO2 RAE20 SLP206 T01060039 PNO $
KMBL 152210Z AUTO 31008KT 10SM -RA SCT027 OVC041 09/06 A3006 RMK AO2 PNO $
KMBL 152156Z AUTO 31013G20KT 10SM -RA BKN027 BKN035 OVC044 11/06 A3005 RMK AO2 RAB03E20B49 SLP196 T01060056 PNO $